Flight Track Log - Related Links

Times and Time Zones

All times are in EDT time to prevent confusion due to time zone crossing. See the RPA1631 flight status page for this flight to view local times or setup timezone preferences in your user account.

Time Position Orientation Groundspeed Altitude Reporting Facility
EDT Latitude Longitude Course Direction KTS MPH feet Rate Location/Type
Tue 09:11:24 AM 43.0958 -89.3569 270° West 141 162 2,900  Level Chicago Center
Tue 09:12:26 AM 43.0961 -89.4328 270° West 197 227 5,400 2,371 Climbing Chicago Center
Tue 09:13:28 AM 43.0964 -89.5181 270° West 197 227 7,800 2,323 Climbing Chicago Center
Tue 09:14:30 AM 43.0967 -89.6128 270° West 244 281 10,200 2,081 Climbing Chicago Center
Tue 09:15:32 AM 43.0986 -89.7169 271° West 269 310 12,100 2,226 Climbing Chicago Center
Tue 09:16:00 AM 43.1334 -90.3945 270° West  Level FlightAware Approximate
Tue 09:16:34 AM 43.1006 -89.8269 271° West 286 329 14,800  Level Chicago Center
Tue 09:17:35 AM 43.1008 -89.9244 270° West 280 322 16,700 2,195 Climbing Chicago Center
Tue 09:18:37 AM 43.1025 -90.0589 271° West 297 342 19,300 2,226 Climbing Chicago Center
Tue 09:19:39 AM 43.1042 -90.1731 271° West 303 349 21,300 1,790 Climbing Chicago Center
Tue 09:20:41 AM 43.1056 -90.2883 271° West 306 352 23,000 1,548 Climbing Chicago Center
Tue 09:21:43 AM 43.1081 -90.4086 272° West 318 366 24,500 1,344 Climbing Chicago Center
Tue 09:22:46 AM 43.1092 -90.5306 271° West 323 372 25,800 1,161 Climbing Chicago Center
Tue 09:23:47 AM 43.1050 -90.6869 268° West 343 395 26,900 927 Climbing Chicago Center
Tue 09:24:49 AM 43.0975 -90.8267 266° West 369 425 27,700 900 Climbing Chicago Center
Tue 09:25:47 AM 43.0928 -90.9689 267° West 376 433 28,700 1,160 Climbing Minneapolis Center
Tue 09:26:48 AM 43.0869 -91.1125 267° West 381 438 30,000 582 Climbing Minneapolis Center
Tue 09:28:01 AM 43.0792 -91.2567 266° West 385 443 30,000  Level Minneapolis Center
Tue 09:29:03 AM 43.0714 -91.4275 266° West 382 440 30,000 49 Level Minneapolis Center
Tue 09:30:04 AM 43.0647 -91.5678 266° West 379 436 30,100 829 Climbing Minneapolis Center
Tue 09:31:06 AM 43.0542 -91.7350 265° West 377 434 31,700 1,073 Climbing Minneapolis Center
Tue 09:32:07 AM 43.0469 -91.8733 266° West 373 429 32,300 738 Climbing Minneapolis Center
Tue 09:33:08 AM 43.0389 -92.0133 266° West 374 430 33,200 829 Climbing Minneapolis Center
Tue 09:34:10 AM 43.0314 -92.1494 266° West 368 423 34,000 390 Climbing Minneapolis Center
Tue 09:35:11 AM 43.0233 -92.2861 265° West 366 421 34,000  Level Minneapolis Center
Tue 09:36:12 AM 43.0136 -92.4517 265° West 368 423 34,000  Level Minneapolis Center
Tue 09:37:14 AM 43.0053 -92.5897 265° West 370 426 34,000  Level Minneapolis Center
Tue 09:38:15 AM 42.9975 -92.7253 266° West 364 419 34,000  Level Minneapolis Center
Tue 09:39:17 AM 42.9889 -92.8636 265° West 367 422 34,000  Level Minneapolis Center
Tue 09:40:18 AM 42.9803 -93.0008 265° West 368 423 34,000  Level Minneapolis Center
Tue 09:41:19 AM 42.9714 -93.1361 265° West 364 419 34,000  Level Minneapolis Center
Tue 09:42:20 AM 42.9644 -93.2444 265° West 363 418 34,000  Level Minneapolis Center
Tue 09:43:34 AM 42.9511 -93.4350 265° West 363 418 34,000  Level Minneapolis Center
Tue 09:44:36 AM 42.9433 -93.5958 266° West 359 413 34,000  Level Minneapolis Center
Tue 09:45:37 AM 42.9331 -93.7328 264° West 364 419 34,000  Level Minneapolis Center
Tue 09:46:38 AM 42.9222 -93.8681 264° West 364 419 34,000  Level Minneapolis Center
Tue 09:47:40 AM 42.9125 -94.0042 264° West 363 418 34,000  Level Minneapolis Center
Tue 09:48:41 AM 42.9028 -94.1400 264° West 364 419 34,000  Level Minneapolis Center
Tue 09:49:42 AM 42.8914 -94.3014 265° West 359 413 34,000  Level Minneapolis Center
Tue 09:50:44 AM 42.8803 -94.4367 264° West 362 417 34,000  Level Minneapolis Center
Tue 09:51:57 AM 42.8697 -94.5708 264° West 361 415 34,000  Level Minneapolis Center
Tue 09:52:59 AM 42.8567 -94.7331 264° West 352 405 34,000  Level Minneapolis Center
Tue 09:54:00 AM 42.8456 -94.8686 264° West 358 412 34,000  Level Minneapolis Center
Tue 09:55:01 AM 42.8369 -94.9781 264° West 362 417 34,000  Level Minneapolis Center
Tue 09:56:03 AM 42.8225 -95.1414 263° West 362 417 34,000  Level Minneapolis Center
Tue 09:57:04 AM 42.8111 -95.2772 264° West 361 415 34,000  Level Minneapolis Center
Tue 09:58:05 AM 42.8003 -95.4128 264° West 360 414 34,000  Level Minneapolis Center
Tue 09:59:07 AM 42.7861 -95.5744 263° West 359 413 34,000  Level Minneapolis Center
Tue 10:00:08 AM 42.7731 -95.7092 263° West 359 413 34,000  Level Minneapolis Center
Tue 10:01:09 AM 42.7619 -95.8442 264° West 359 413 34,000  Level Minneapolis Center
Tue 10:02:11 AM 42.7497 -95.9781 263° West 358 412 34,000  Level Minneapolis Center
Tue 10:03:12 AM 42.7375 -96.1106 263° West 355 409 34,000  Level Minneapolis Center
Tue 10:04:13 AM 42.7258 -96.2447 263° West 356 410 34,000  Level Minneapolis Center
Tue 10:05:15 AM 42.7125 -96.3761 262° West 352 405 34,000  Level Minneapolis Center
Tue 10:06:16 AM 42.6992 -96.5222 263° West 350 403 34,000  Level Minneapolis Center
Tue 10:07:17 AM 42.6864 -96.6550 263° West 353 406 34,000  Level Minneapolis Center
Tue 10:08:18 AM 42.6733 -96.7856 262° West 353 406 34,000  Level Minneapolis Center
Tue 10:09:20 AM 42.6611 -96.9164 263° West 350 403 34,000  Level Minneapolis Center
Tue 10:10:21 AM 42.6475 -97.0472 262° West 350 403 34,000  Level Minneapolis Center
Tue 10:11:22 AM 42.6342 -97.1764 262° West 349 402 34,000  Level Minneapolis Center
Tue 10:12:24 AM 42.6208 -97.3058 262° West 347 399 34,000  Level Minneapolis Center
Tue 10:13:25 AM 42.6081 -97.4347 262° West 346 398 34,000  Level Minneapolis Center
Tue 10:14:26 AM 42.5911 -97.5906 262° West 348 400 34,000  Level Minneapolis Center
Tue 10:15:28 AM 42.5778 -97.7192 262° West 347 399 34,000  Level Minneapolis Center
Tue 10:16:29 AM 42.5636 -97.8561 262° West 348 400 34,000  Level Minneapolis Center
Tue 10:17:30 AM 42.5494 -97.9831 261° West 343 395 34,000  Level Minneapolis Center
Tue 10:18:32 AM 42.5347 -98.1117 261° West 344 396 34,000  Level Minneapolis Center
Tue 10:19:33 AM 42.5206 -98.2400 262° West 345 397 34,000  Level Minneapolis Center
Tue 10:20:35 AM 42.5072 -98.3681 262° West 344 396 34,000  Level Minneapolis Center
Tue 10:21:36 AM 42.4928 -98.4944 261° West 341 392 34,000  Level Minneapolis Center
Tue 10:22:37 AM 42.4783 -98.6219 261° West 343 395 34,000  Level Minneapolis Center
Tue 10:23:39 AM 42.4456 -98.7428 250° West 347 399 34,000  Level Minneapolis Center
Tue 10:24:40 AM 42.3972 -98.8528 239° Southwest 342 394 34,000  Level Minneapolis Center
Tue 10:25:42 AM 42.3361 -98.9858 238° Southwest 346 398 34,000  Level Minneapolis Center
Tue 10:26:43 AM 42.2872 -99.0975 239° Southwest 346 398 34,000  Level Minneapolis Center
Tue 10:27:45 AM 42.2364 -99.2089 238° Southwest 349 402 34,000  Level Minneapolis Center
Tue 10:28:46 AM 42.1847 -99.3206 238° Southwest 352 405 34,000  Level Minneapolis Center
Tue 10:29:23 AM 42.1547 -99.3886 239° Southwest 349 402 34,000  Level Denver Center
Tue 10:30:25 AM 42.1028 -99.4997 238° Southwest 352 405 34,000  Level Denver Center
Tue 10:31:27 AM 42.0561 -99.6128 241° Southwest 348 400 34,000  Level Denver Center
Tue 10:32:29 AM 41.9997 -99.7481 241° Southwest 350 403 34,000  Level Denver Center
Tue 10:33:31 AM 41.9550 -99.8578 241° Southwest 351 404 34,000  Level Denver Center
Tue 10:34:33 AM 41.9089 -99.9653 240° Southwest 349 402 34,000  Level Denver Center
Tue 10:35:35 AM 41.8556 -100.0928 241° Southwest 351 404 34,000  Level Denver Center
Tue 10:36:37 AM 41.8092 -100.2019 240° Southwest 352 405 34,000  Level Denver Center
Tue 10:37:39 AM 41.7547 -100.3300 240° Southwest 356 410 34,000  Level Denver Center
Tue 10:38:41 AM 41.7081 -100.4383 240° Southwest 353 406 34,000  Level Denver Center
Tue 10:39:43 AM 41.6531 -100.5656 240° Southwest 354 407 34,000  Level Denver Center
Tue 10:40:45 AM 41.6067 -100.6761 241° Southwest 355 409 34,000  Level Denver Center
Tue 10:41:47 AM 41.5508 -100.8039 240° Southwest 357 411 34,000  Level Denver Center
Tue 10:42:49 AM 41.5039 -100.9119 240° Southwest 354 407 34,000  Level Denver Center
Tue 10:43:51 AM 41.4486 -101.0397 240° Southwest 359 413 34,000  Level Denver Center
Tue 10:44:53 AM 41.4017 -101.1506 241° Southwest 360 414 34,000  Level Denver Center
Tue 10:45:55 AM 41.3606 -101.2872 248° West 359 413 34,000  Level Denver Center
Tue 10:46:57 AM 41.3247 -101.4028 248° West 355 409 34,000  Level Denver Center
Tue 10:47:59 AM 41.2836 -101.5383 248° West 355 409 34,000  Level Denver Center
Tue 10:49:01 AM 41.2467 -101.6550 247° West 359 413 34,000  Level Denver Center
Tue 10:50:03 AM 41.2044 -101.7906 248° West 357 411 34,000  Level Denver Center
Tue 10:51:05 AM 41.1658 -101.9097 247° West 365 420 34,000  Level Denver Center
Tue 10:52:07 AM 41.1244 -102.0478 248° West 363 418 34,000  Level Denver Center
Tue 10:53:09 AM 41.0881 -102.1678 248° West 365 420 34,000  Level Denver Center
Tue 10:54:11 AM 41.0450 -102.3061 248° West 365 420 34,000  Level Denver Center
Tue 10:55:13 AM 41.0064 -102.4236 247° West 365 420 34,000  Level Denver Center
Tue 10:56:15 AM 40.9639 -102.5614 248° West 363 418 34,000  Level Denver Center
Tue 10:57:17 AM 40.9256 -102.6778 246° West 362 417 34,000  Level Denver Center
Tue 10:58:19 AM 40.8814 -102.8147 247° West 363 418 34,000  Level Denver Center
Tue 10:59:21 AM 40.8353 -102.9250 241° Southwest 359 413 34,000  Level Denver Center
Tue 11:00:23 AM 40.7833 -103.0442 240° Southwest 364 419 34,000 -339 Level Denver Center
Tue 11:01:25 AM 40.7356 -103.1542 240° Southwest 361 415 33,300 -1,306 Descending Denver Center
Tue 11:02:27 AM 40.6811 -103.2750 239° Southwest 366 421 31,300 -1,984 Descending Denver Center
Tue 11:03:29 AM 40.6275 -103.3981 240° Southwest 374 430 29,200 -2,081 Descending Denver Center
Tue 11:04:31 AM 40.5692 -103.5283 240° Southwest 371 427 27,000 -1,935 Descending Denver Center
Tue 11:05:33 AM 40.5214 -103.6375 240° Southwest 360 414 25,200 -1,839 Descending Denver Center
Tue 11:06:35 AM 40.4667 -103.7581 239° Southwest 345 397 23,200 -1,839 Descending Denver Center
Tue 11:07:37 AM 40.4211 -103.8619 240° Southwest 336 387 21,400 -2,032 Descending Denver Center
Tue 11:08:39 AM 40.3753 -103.9672 240° Southwest 310 357 19,000 -2,323 Descending Denver Center
Tue 11:09:41 AM 40.3756 -104.0569 270° West 279 321 16,600 -2,371 Descending Denver Center
Tue 11:10:43 AM 40.4153 -104.1631 296° West 305 351 14,100 -1,306 Descending Denver Center
Tue 11:11:45 AM 40.4183 -104.2589 272° West 266 306 13,900 -532 Descending Denver Center
Tue 11:12:47 AM 40.3967 -104.3433 251° West 231 266 13,000 -435 Descending Denver Center
Tue 11:13:49 AM 40.3767 -104.4239 252° West 232 267 13,000 -484 Level Denver Center
Tue 11:14:51 AM 40.3558 -104.5094 252° West 231 266 12,000 -484 Descending Denver Center
Tue 11:15:53 AM 40.3356 -104.5886 251° West 230 265 12,000  Level Denver Center
Tue 11:16:55 AM 40.2750 -104.6347 210° Southwest 232 267 12,000  Level Denver Center
Tue 11:17:58 AM 40.2128 -104.6558 195° South 233 268 12,000 -480 Level Denver Center
Tue 11:19:00 AM 40.1475 -104.6569 181° South 235 270 11,000 -871 Descending Denver Center
Tue 11:20:02 AM 40.0847 -104.6575 180° South 211 243 10,200 -968 Descending Denver Center
Tue 11:21:04 AM 40.0397 -104.6583 181° South 165 190 9,000 -1,065 Descending Denver Center
Tue 11:22:06 AM 39.9903 -104.6589 180° South 164 189 8,000 -919 Descending Denver Center
Tue 11:23:08 AM 39.9447 -104.6586 180° South 165 190 7,100 -919 Descending Denver Center
Tue 11:24:10 AM 39.8961 -104.6600 181° South 162 186 6,100 -823 Descending Denver Center
Tue 11:25:12 AM 39.8575 -104.6603 180° South 142 163 5,400 -677 Descending Denver Center
Tue 11:27:00 AM 39.8500 -104.6667 190° South  Level FlightAware Approximate
Tue 11:34:00 AM 39.8617 -104.6732 190° South  Level Estimated
Tue 11:35:00 AM 39.8617 -104.6732 190° South  Level Estimated

Login

Don't have an account? Register now (free) for customized features, flight alerts, and more!